4XHGR LLHZ-LLHZ

Flight info

Callsign 4XHGR
Flight time 0h 15m
Altitude 2500
Route CVFR
Aircraft C172/L-VD/A

Departure

Time 2026-04-23 19:38
Airport Herzliya Airport (LLHZ)

Arrival

Time 2026-04-23 19:53
Airport Herzliya Airport (LLHZ)
Time Latitude Longitude Altitude Speed Heading
2026-04-23 19:34 32.17881 34.83779 124 ft 0 kts 110°
2026-04-23 19:35 32.17892 34.83815 126 ft 7 kts 92°
2026-04-23 19:36 32.17915 34.83832 130 ft 4 kts
2026-04-23 19:36 32.17933 34.83792 127 ft 17 kts 287°
2026-04-23 19:36 32.18025 34.83472 112 ft 66 kts 289°
2026-04-23 19:36 32.18220 34.82926 273 ft 73 kts 320°
2026-04-23 19:37 32.18654 34.82867 414 ft 80 kts 14°
2026-04-23 19:37 32.18742 34.82894 416 ft 84 kts 14°
2026-04-23 19:37 32.19325 34.83092 577 ft 90 kts 16°
2026-04-23 19:38 32.19918 34.83328 810 ft 88 kts 16°
2026-04-23 19:38 32.20439 34.83536 1111 ft 68 kts 23°
2026-04-23 19:38 32.20946 34.83766 1198 ft 85 kts 15°
2026-04-23 19:38 32.21522 34.83936 1421 ft 85 kts 10°
2026-04-23 19:39 32.22112 34.84082 1598 ft 88 kts 10°
2026-04-23 19:39 32.22266 34.84115 1633 ft 90 kts
2026-04-23 19:39 32.22346 34.84130 1622 ft 94 kts
2026-04-23 19:40 32.22845 34.84253 1696 ft 99 kts 13°
2026-04-23 19:40 32.23485 34.84433 1820 ft 101 kts 12°
2026-04-23 19:40 32.24151 34.84609 2045 ft 96 kts
2026-04-23 19:41 32.24798 34.84708 2258 ft 92 kts
2026-04-23 19:41 32.25430 34.84754 2439 ft 93 kts
2026-04-23 19:41 32.25694 34.84797 2480 ft 97 kts
2026-04-23 19:42 32.25935 34.84838 2470 ft 104 kts
2026-04-23 19:42 32.26552 34.84908 2420 ft 115 kts
2026-04-23 19:43 32.26878 34.84931 2379 ft 120 kts
2026-04-23 19:43 32.27687 34.85022 2468 ft 117 kts 20°
2026-04-23 19:43 32.28050 34.85829 2517 ft 127 kts 99°
2026-04-23 19:44 32.27450 34.86559 2507 ft 131 kts 158°
2026-04-23 19:44 32.26593 34.86970 2494 ft 131 kts 161°
2026-04-23 19:44 32.25720 34.87341 2237 ft 131 kts 163°
2026-04-23 19:44 32.25603 34.87384 2160 ft 131 kts 164°
2026-04-23 19:45 32.24738 34.87653 1742 ft 124 kts 172°
2026-04-23 19:45 32.23904 34.87716 1410 ft 115 kts 181°
2026-04-23 19:45 32.23135 34.87705 1175 ft 104 kts 183°
2026-04-23 19:45 32.23091 34.87704 1167 ft 103 kts 183°
2026-04-23 19:46 32.22675 34.87683 1030 ft 118 kts 183°
2026-04-23 19:46 32.21804 34.87666 995 ft 128 kts 183°
2026-04-23 19:46 32.20911 34.87613 1042 ft 130 kts 186°
2026-04-23 19:46 32.20023 34.87476 887 ft 125 kts 193°
2026-04-23 19:47 32.19227 34.87206 707 ft 112 kts 200°
2026-04-23 19:47 32.18492 34.86911 694 ft 110 kts 201°
2026-04-23 19:47 32.17808 34.86541 691 ft 106 kts 216°
2026-04-23 19:47 32.17441 34.85851 679 ft 105 kts 263°
2026-04-23 19:48 32.17521 34.85070 478 ft 90 kts 295°
2026-04-23 19:48 32.17729 34.84435 315 ft 72 kts 292°
2026-04-23 19:48 32.17849 34.84030 187 ft 69 kts 296°
2026-04-23 19:50 32.17941 34.83732 127 ft 70 kts 295°
2026-04-23 19:50 32.18103 34.83213 118 ft 80 kts 297°
2026-04-23 19:50 32.18283 34.82723 326 ft 73 kts 321°
2026-04-23 19:51 32.18635 34.82669 372 ft 87 kts 20°
2026-04-23 19:51 32.19171 34.82963 583 ft 88 kts 37°
2026-04-23 19:51 32.19270 34.83680 709 ft 108 kts 112°
2026-04-23 19:51 32.18933 34.84520 785 ft 116 kts 112°
2026-04-23 19:52 32.18527 34.85375 911 ft 117 kts 142°
2026-04-23 19:52 32.17766 34.85350 731 ft 117 kts 207°
2026-04-23 19:52 32.17607 34.84628 532 ft 89 kts 301°
2026-04-23 19:52 32.17851 34.84034 222 ft 75 kts 297°
2026-04-23 19:53 32.18008 34.83540 114 ft 45 kts 288°
2026-04-23 19:53 32.18024 34.83285 109 ft 17 kts 245°